sensor_id;sensor_type;location;lat;lon;timestamp;P1;durP1;ratioP1;P2;durP2;ratioP2
13485;SDS011;6815;59.336;17.998;2022-07-30T00:02:13;1.55;;;1.20;;
13485;SDS011;6815;59.336;17.998;2022-07-30T00:04:40;2.03;;;1.23;;
13485;SDS011;6815;59.336;17.998;2022-07-30T00:07:07;0.98;;;0.98;;
13485;SDS011;6815;59.336;17.998;2022-07-30T00:09:34;1.80;;;0.95;;
13485;SDS011;6815;59.336;17.998;2022-07-30T00:12:00;1.38;;;1.08;;
13485;SDS011;6815;59.336;17.998;2022-07-30T00:14:25;1.10;;;1.00;;
13485;SDS011;6815;59.336;17.998;2022-07-30T00:16:51;1.00;;;0.90;;
13485;SDS011;6815;59.336;17.998;2022-07-30T00:19:18;1.67;;;1.20;;
13485;SDS011;6815;59.336;17.998;2022-07-30T00:21:44;2.03;;;0.90;;
13485;SDS011;6815;59.336;17.998;2022-07-30T00:24:09;1.33;;;0.93;;
13485;SDS011;6815;59.336;17.998;2022-07-30T00:26:35;1.48;;;1.20;;
13485;SDS011;6815;59.336;17.998;2022-07-30T00:29:00;2.05;;;1.10;;
13485;SDS011;6815;59.336;17.998;2022-07-30T00:31:26;1.88;;;0.98;;
13485;SDS011;6815;59.336;17.998;2022-07-30T00:33:52;1.13;;;1.02;;
13485;SDS011;6815;59.336;17.998;2022-07-30T00:36:18;1.23;;;0.93;;
13485;SDS011;6815;59.336;17.998;2022-07-30T00:38:43;1.10;;;1.00;;
13485;SDS011;6815;59.336;17.998;2022-07-30T00:41:09;0.90;;;0.90;;
13485;SDS011;6815;59.336;17.998;2022-07-30T00:43:34;0.80;;;0.80;;
13485;SDS011;6815;59.336;17.998;2022-07-30T00:46:01;2.70;;;1.20;;
13485;SDS011;6815;59.336;17.998;2022-07-30T00:48:26;1.20;;;1.10;;
13485;SDS011;6815;59.336;17.998;2022-07-30T00:50:51;0.93;;;0.90;;
13485;SDS011;6815;59.336;17.998;2022-07-30T00:53:17;2.63;;;0.90;;
13485;SDS011;6815;59.336;17.998;2022-07-30T00:55:43;1.05;;;0.95;;
13485;SDS011;6815;59.336;17.998;2022-07-30T00:58:09;1.27;;;1.00;;
13485;SDS011;6815;59.336;17.998;2022-07-30T01:00:37;1.50;;;1.20;;
13485;SDS011;6815;59.336;17.998;2022-07-30T01:03:06;2.45;;;1.30;;
13485;SDS011;6815;59.336;17.998;2022-07-30T01:05:33;1.17;;;1.08;;
13485;SDS011;6815;59.336;17.998;2022-07-30T01:08:00;2.13;;;1.00;;
13485;SDS011;6815;59.336;17.998;2022-07-30T01:10:25;1.10;;;1.00;;
13485;SDS011;6815;59.336;17.998;2022-07-30T01:12:51;1.52;;;1.20;;
13485;SDS011;6815;59.336;17.998;2022-07-30T01:15:18;1.27;;;1.17;;
13485;SDS011;6815;59.336;17.998;2022-07-30T01:17:45;0.93;;;0.85;;
13485;SDS011;6815;59.336;17.998;2022-07-30T01:20:17;1.45;;;1.02;;
13485;SDS011;6815;59.336;17.998;2022-07-30T01:28:48;4.10;;;1.10;;
13485;SDS011;6815;59.336;17.998;2022-07-30T01:31:17;0.93;;;0.93;;
13485;SDS011;6815;59.336;17.998;2022-07-30T01:33:45;1.13;;;0.98;;
13485;SDS011;6815;59.336;17.998;2022-07-30T01:36:13;2.97;;;0.90;;
13485;SDS011;6815;59.336;17.998;2022-07-30T01:38:43;1.75;;;1.23;;
13485;SDS011;6815;59.336;17.998;2022-07-30T01:41:10;1.60;;;0.95;;
13485;SDS011;6815;59.336;17.998;2022-07-30T01:43:37;1.15;;;0.90;;
13485;SDS011;6815;59.336;17.998;2022-07-30T01:46:12;1.63;;;0.95;;
13485;SDS011;6815;59.336;17.998;2022-07-30T01:48:40;1.08;;;0.90;;
13485;SDS011;6815;59.336;17.998;2022-07-30T01:51:08;1.98;;;1.00;;
13485;SDS011;6815;59.336;17.998;2022-07-30T01:53:36;1.52;;;1.10;;
13485;SDS011;6815;59.336;17.998;2022-07-30T01:56:03;1.17;;;1.00;;
13485;SDS011;6815;59.336;17.998;2022-07-30T01:58:34;1.77;;;0.93;;
13485;SDS011;6815;59.336;17.998;2022-07-30T02:01:01;1.85;;;0.93;;
13485;SDS011;6815;59.336;17.998;2022-07-30T02:03:27;1.60;;;1.08;;
13485;SDS011;6815;59.336;17.998;2022-07-30T02:06:04;1.10;;;1.00;;
13485;SDS011;6815;59.336;17.998;2022-07-30T02:08:53;1.02;;;0.93;;
13485;SDS011;6815;59.336;17.998;2022-07-30T02:11:20;4.35;;;1.02;;
13485;SDS011;6815;59.336;17.998;2022-07-30T02:14:10;1.92;;;0.93;;
13485;SDS011;6815;59.336;17.998;2022-07-30T02:16:41;1.35;;;1.00;;
13485;SDS011;6815;59.336;17.998;2022-07-30T02:19:10;2.00;;;1.13;;
13485;SDS011;6815;59.336;17.998;2022-07-30T02:21:40;1.10;;;1.00;;
13485;SDS011;6815;59.336;17.998;2022-07-30T02:24:13;1.50;;;1.05;;
13485;SDS011;6815;59.336;17.998;2022-07-30T02:26:42;2.10;;;1.05;;
13485;SDS011;6815;59.336;17.998;2022-07-30T02:29:10;3.38;;;1.10;;
13485;SDS011;6815;59.336;17.998;2022-07-30T02:31:37;2.08;;;0.90;;
13485;SDS011;6815;59.336;17.998;2022-07-30T02:34:04;1.00;;;0.90;;
13485;SDS011;6815;59.336;17.998;2022-07-30T02:36:32;1.52;;;1.10;;
13485;SDS011;6815;59.336;17.998;2022-07-30T02:39:00;1.65;;;1.20;;
13485;SDS011;6815;59.336;17.998;2022-07-30T02:41:28;1.40;;;1.00;;
13485;SDS011;6815;59.336;17.998;2022-07-30T02:43:56;2.25;;;1.13;;
13485;SDS011;6815;59.336;17.998;2022-07-30T02:46:23;2.80;;;1.58;;
13485;SDS011;6815;59.336;17.998;2022-07-30T02:48:49;2.63;;;1.02;;
13485;SDS011;6815;59.336;17.998;2022-07-30T02:51:17;2.03;;;1.08;;
13485;SDS011;6815;59.336;17.998;2022-07-30T02:53:44;1.05;;;0.95;;
13485;SDS011;6815;59.336;17.998;2022-07-30T02:56:11;1.70;;;1.00;;
13485;SDS011;6815;59.336;17.998;2022-07-30T02:58:40;1.75;;;1.10;;
13485;SDS011;6815;59.336;17.998;2022-07-30T03:01:08;0.93;;;0.82;;
13485;SDS011;6815;59.336;17.998;2022-07-30T03:03:35;1.33;;;1.02;;
13485;SDS011;6815;59.336;17.998;2022-07-30T03:06:02;1.50;;;1.10;;
13485;SDS011;6815;59.336;17.998;2022-07-30T03:08:30;1.50;;;1.20;;
13485;SDS011;6815;59.336;17.998;2022-07-30T03:10:57;1.48;;;1.00;;
13485;SDS011;6815;59.336;17.998;2022-07-30T03:13:23;1.63;;;1.10;;
13485;SDS011;6815;59.336;17.998;2022-07-30T03:15:49;1.23;;;1.10;;
13485;SDS011;6815;59.336;17.998;2022-07-30T03:18:16;1.42;;;0.98;;
13485;SDS011;6815;59.336;17.998;2022-07-30T03:20:53;2.13;;;1.10;;
13485;SDS011;6815;59.336;17.998;2022-07-30T03:23:21;1.77;;;1.05;;
13485;SDS011;6815;59.336;17.998;2022-07-30T03:25:51;1.45;;;1.33;;
13485;SDS011;6815;59.336;17.998;2022-07-30T03:28:22;2.95;;;1.27;;
13485;SDS011;6815;59.336;17.998;2022-07-30T03:30:49;0.95;;;0.90;;
13485;SDS011;6815;59.336;17.998;2022-07-30T03:33:16;1.30;;;0.98;;
13485;SDS011;6815;59.336;17.998;2022-07-30T03:35:44;0.93;;;0.93;;
13485;SDS011;6815;59.336;17.998;2022-07-30T03:38:14;2.55;;;1.00;;
13485;SDS011;6815;59.336;17.998;2022-07-30T03:40:41;1.40;;;1.30;;
13485;SDS011;6815;59.336;17.998;2022-07-30T03:43:08;2.67;;;1.15;;
13485;SDS011;6815;59.336;17.998;2022-07-30T03:45:35;1.67;;;1.00;;
13485;SDS011;6815;59.336;17.998;2022-07-30T03:48:03;1.10;;;1.00;;
13485;SDS011;6815;59.336;17.998;2022-07-30T03:50:31;3.10;;;1.20;;
13485;SDS011;6815;59.336;17.998;2022-07-30T03:52:59;1.20;;;1.00;;
13485;SDS011;6815;59.336;17.998;2022-07-30T03:55:26;1.27;;;1.02;;
13485;SDS011;6815;59.336;17.998;2022-07-30T03:57:52;0.82;;;0.80;;
13485;SDS011;6815;59.336;17.998;2022-07-30T04:00:18;1.58;;;0.95;;
13485;SDS011;6815;59.336;17.998;2022-07-30T04:02:44;1.17;;;1.10;;
13485;SDS011;6815;59.336;17.998;2022-07-30T04:05:13;1.20;;;1.10;;
13485;SDS011;6815;59.336;17.998;2022-07-30T04:07:40;1.33;;;0.85;;
13485;SDS011;6815;59.336;17.998;2022-07-30T04:10:05;2.08;;;1.00;;
13485;SDS011;6815;59.336;17.998;2022-07-30T04:12:34;1.10;;;0.90;;
13485;SDS011;6815;59.336;17.998;2022-07-30T04:15:00;2.55;;;1.02;;
13485;SDS011;6815;59.336;17.998;2022-07-30T04:17:34;1.10;;;1.00;;
13485;SDS011;6815;59.336;17.998;2022-07-30T04:20:07;1.10;;;0.82;;
13485;SDS011;6815;59.336;17.998;2022-07-30T04:22:36;2.22;;;0.93;;
13485;SDS011;6815;59.336;17.998;2022-07-30T04:25:04;1.38;;;0.93;;
13485;SDS011;6815;59.336;17.998;2022-07-30T04:27:31;1.33;;;0.90;;
13485;SDS011;6815;59.336;17.998;2022-07-30T04:29:58;1.10;;;1.00;;
13485;SDS011;6815;59.336;17.998;2022-07-30T04:32:24;1.30;;;0.98;;
13485;SDS011;6815;59.336;17.998;2022-07-30T04:34:52;1.92;;;1.00;;
13485;SDS011;6815;59.336;17.998;2022-07-30T04:37:20;1.73;;;1.00;;
13485;SDS011;6815;59.336;17.998;2022-07-30T04:39:47;1.08;;;0.98;;
13485;SDS011;6815;59.336;17.998;2022-07-30T04:42:15;1.10;;;1.00;;
13485;SDS011;6815;59.336;17.998;2022-07-30T04:44:41;1.55;;;1.17;;
13485;SDS011;6815;59.336;17.998;2022-07-30T04:47:06;1.40;;;1.17;;
13485;SDS011;6815;59.336;17.998;2022-07-30T04:49:32;1.08;;;1.00;;
13485;SDS011;6815;59.336;17.998;2022-07-30T04:51:59;1.40;;;0.90;;
13485;SDS011;6815;59.336;17.998;2022-07-30T04:54:26;2.13;;;1.10;;
13485;SDS011;6815;59.336;17.998;2022-07-30T04:57:02;1.05;;;0.98;;
13485;SDS011;6815;59.336;17.998;2022-07-30T04:59:30;1.42;;;1.08;;
13485;SDS011;6815;59.336;17.998;2022-07-30T05:01:56;1.20;;;1.10;;
13485;SDS011;6815;59.336;17.998;2022-07-30T05:04:24;1.60;;;1.27;;
13485;SDS011;6815;59.336;17.998;2022-07-30T05:06:50;1.58;;;1.13;;
13485;SDS011;6815;59.336;17.998;2022-07-30T05:09:16;1.23;;;1.08;;
13485;SDS011;6815;59.336;17.998;2022-07-30T05:11:42;2.13;;;1.10;;
13485;SDS011;6815;59.336;17.998;2022-07-30T05:14:17;1.20;;;1.10;;
13485;SDS011;6815;59.336;17.998;2022-07-30T05:16:44;1.20;;;1.00;;
13485;SDS011;6815;59.336;17.998;2022-07-30T05:19:09;1.45;;;1.20;;
13485;SDS011;6815;59.336;17.998;2022-07-30T05:21:35;1.30;;;1.20;;
13485;SDS011;6815;59.336;17.998;2022-07-30T05:24:00;1.05;;;1.00;;
13485;SDS011;6815;59.336;17.998;2022-07-30T05:26:26;2.20;;;1.00;;
13485;SDS011;6815;59.336;17.998;2022-07-30T05:28:51;1.10;;;1.00;;
13485;SDS011;6815;59.336;17.998;2022-07-30T05:31:17;4.18;;;1.40;;
13485;SDS011;6815;59.336;17.998;2022-07-30T05:33:42;2.08;;;1.30;;
13485;SDS011;6815;59.336;17.998;2022-07-30T05:36:07;2.20;;;1.30;;
13485;SDS011;6815;59.336;17.998;2022-07-30T05:38:33;1.13;;;0.90;;
13485;SDS011;6815;59.336;17.998;2022-07-30T05:40:59;1.27;;;0.90;;
13485;SDS011;6815;59.336;17.998;2022-07-30T05:43:24;1.88;;;1.13;;
13485;SDS011;6815;59.336;17.998;2022-07-30T05:45:50;1.10;;;1.00;;
13485;SDS011;6815;59.336;17.998;2022-07-30T05:48:15;1.25;;;1.05;;
13485;SDS011;6815;59.336;17.998;2022-07-30T05:50:41;1.30;;;1.20;;
13485;SDS011;6815;59.336;17.998;2022-07-30T05:53:06;1.08;;;0.90;;
13485;SDS011;6815;59.336;17.998;2022-07-30T05:55:31;1.15;;;1.05;;
13485;SDS011;6815;59.336;17.998;2022-07-30T05:57:57;2.60;;;1.30;;
13485;SDS011;6815;59.336;17.998;2022-07-30T06:00:23;1.75;;;0.93;;
13485;SDS011;6815;59.336;17.998;2022-07-30T06:02:49;1.10;;;1.00;;
13485;SDS011;6815;59.336;17.998;2022-07-30T06:05:15;2.30;;;0.93;;
13485;SDS011;6815;59.336;17.998;2022-07-30T06:07:41;0.95;;;0.85;;
13485;SDS011;6815;59.336;17.998;2022-07-30T06:10:06;1.05;;;0.90;;
13485;SDS011;6815;59.336;17.998;2022-07-30T06:12:32;1.20;;;1.10;;
13485;SDS011;6815;59.336;17.998;2022-07-30T06:14:58;1.17;;;0.98;;
13485;SDS011;6815;59.336;17.998;2022-07-30T06:17:23;1.10;;;1.08;;
13485;SDS011;6815;59.336;17.998;2022-07-30T06:19:49;1.17;;;0.90;;
13485;SDS011;6815;59.336;17.998;2022-07-30T06:22:15;1.13;;;1.02;;
13485;SDS011;6815;59.336;17.998;2022-07-30T06:24:41;3.13;;;1.10;;
13485;SDS011;6815;59.336;17.998;2022-07-30T06:27:06;0.93;;;0.93;;
13485;SDS011;6815;59.336;17.998;2022-07-30T06:29:32;1.75;;;1.00;;
13485;SDS011;6815;59.336;17.998;2022-07-30T06:31:58;1.20;;;1.10;;
13485;SDS011;6815;59.336;17.998;2022-07-30T06:34:23;0.95;;;0.95;;
13485;SDS011;6815;59.336;17.998;2022-07-30T06:36:49;0.90;;;0.90;;
13485;SDS011;6815;59.336;17.998;2022-07-30T06:39:15;1.35;;;1.10;;
13485;SDS011;6815;59.336;17.998;2022-07-30T06:41:40;1.25;;;1.13;;
13485;SDS011;6815;59.336;17.998;2022-07-30T06:44:06;1.48;;;1.10;;
13485;SDS011;6815;59.336;17.998;2022-07-30T06:46:31;1.30;;;1.20;;
13485;SDS011;6815;59.336;17.998;2022-07-30T06:48:57;1.33;;;1.10;;
13485;SDS011;6815;59.336;17.998;2022-07-30T06:51:22;2.33;;;1.08;;
13485;SDS011;6815;59.336;17.998;2022-07-30T06:53:48;0.98;;;0.93;;
13485;SDS011;6815;59.336;17.998;2022-07-30T06:56:13;1.35;;;1.17;;
13485;SDS011;6815;59.336;17.998;2022-07-30T06:58:39;2.10;;;1.05;;
13485;SDS011;6815;59.336;17.998;2022-07-30T07:01:04;1.27;;;1.17;;
13485;SDS011;6815;59.336;17.998;2022-07-30T07:03:31;1.55;;;1.25;;
13485;SDS011;6815;59.336;17.998;2022-07-30T07:05:56;4.47;;;1.20;;
13485;SDS011;6815;59.336;17.998;2022-07-30T07:08:22;0.90;;;0.90;;
13485;SDS011;6815;59.336;17.998;2022-07-30T07:10:48;2.10;;;1.20;;
13485;SDS011;6815;59.336;17.998;2022-07-30T07:13:13;2.55;;;1.20;;
13485;SDS011;6815;59.336;17.998;2022-07-30T07:15:39;0.80;;;0.80;;
13485;SDS011;6815;59.336;17.998;2022-07-30T07:18:04;2.05;;;1.00;;
13485;SDS011;6815;59.336;17.998;2022-07-30T07:20:31;1.35;;;0.93;;
13485;SDS011;6815;59.336;17.998;2022-07-30T07:22:56;1.25;;;0.90;;
13485;SDS011;6815;59.336;17.998;2022-07-30T07:25:22;2.25;;;1.20;;
13485;SDS011;6815;59.336;17.998;2022-07-30T07:27:47;1.40;;;1.25;;
13485;SDS011;6815;59.336;17.998;2022-07-30T07:30:13;1.63;;;1.10;;
13485;SDS011;6815;59.336;17.998;2022-07-30T07:32:39;1.20;;;1.10;;
13485;SDS011;6815;59.336;17.998;2022-07-30T07:35:05;1.90;;;1.30;;
13485;SDS011;6815;59.336;17.998;2022-07-30T07:37:32;1.50;;;1.10;;
13485;SDS011;6815;59.336;17.998;2022-07-30T07:39:58;2.05;;;1.27;;
13485;SDS011;6815;59.336;17.998;2022-07-30T07:42:23;1.88;;;1.35;;
13485;SDS011;6815;59.336;17.998;2022-07-30T07:44:48;1.23;;;1.10;;
13485;SDS011;6815;59.336;17.998;2022-07-30T07:47:14;1.83;;;1.02;;
13485;SDS011;6815;59.336;17.998;2022-07-30T07:49:40;2.33;;;1.20;;
13485;SDS011;6815;59.336;17.998;2022-07-30T07:52:05;2.85;;;1.27;;
13485;SDS011;6815;59.336;17.998;2022-07-30T07:54:31;1.63;;;1.20;;
13485;SDS011;6815;59.336;17.998;2022-07-30T07:56:56;2.50;;;1.05;;
13485;SDS011;6815;59.336;17.998;2022-07-30T07:59:22;1.10;;;1.00;;
13485;SDS011;6815;59.336;17.998;2022-07-30T08:01:48;1.27;;;1.17;;
13485;SDS011;6815;59.336;17.998;2022-07-30T08:04:14;1.27;;;1.17;;
13485;SDS011;6815;59.336;17.998;2022-07-30T08:06:39;1.20;;;1.10;;
13485;SDS011;6815;59.336;17.998;2022-07-30T08:09:05;1.90;;;1.42;;
13485;SDS011;6815;59.336;17.998;2022-07-30T08:11:30;1.48;;;1.13;;
13485;SDS011;6815;59.336;17.998;2022-07-30T08:13:55;1.67;;;1.17;;
13485;SDS011;6815;59.336;17.998;2022-07-30T08:16:22;1.20;;;1.13;;
13485;SDS011;6815;59.336;17.998;2022-07-30T08:18:47;2.97;;;1.20;;
13485;SDS011;6815;59.336;17.998;2022-07-30T08:21:13;1.35;;;1.25;;
13485;SDS011;6815;59.336;17.998;2022-07-30T08:23:39;3.53;;;1.10;;
13485;SDS011;6815;59.336;17.998;2022-07-30T08:26:06;1.60;;;1.20;;
13485;SDS011;6815;59.336;17.998;2022-07-30T08:28:32;3.42;;;1.73;;
13485;SDS011;6815;59.336;17.998;2022-07-30T08:31:00;3.33;;;1.88;;
13485;SDS011;6815;59.336;17.998;2022-07-30T08:33:25;2.30;;;2.10;;
13485;SDS011;6815;59.336;17.998;2022-07-30T08:35:51;2.50;;;2.25;;
13485;SDS011;6815;59.336;17.998;2022-07-30T08:38:16;2.30;;;2.10;;
13485;SDS011;6815;59.336;17.998;2022-07-30T08:40:42;1.80;;;1.63;;
13485;SDS011;6815;59.336;17.998;2022-07-30T08:43:07;1.55;;;1.45;;
13485;SDS011;6815;59.336;17.998;2022-07-30T08:45:33;2.38;;;1.50;;
13485;SDS011;6815;59.336;17.998;2022-07-30T08:47:59;2.05;;;1.38;;
13485;SDS011;6815;59.336;17.998;2022-07-30T08:50:26;1.83;;;1.40;;
13485;SDS011;6815;59.336;17.998;2022-07-30T08:52:53;1.73;;;1.33;;
13485;SDS011;6815;59.336;17.998;2022-07-30T08:55:22;1.95;;;1.23;;
13485;SDS011;6815;59.336;17.998;2022-07-30T08:57:48;2.20;;;1.30;;
13485;SDS011;6815;59.336;17.998;2022-07-30T09:00:15;2.55;;;1.77;;
13485;SDS011;6815;59.336;17.998;2022-07-30T09:02:42;1.75;;;1.50;;
13485;SDS011;6815;59.336;17.998;2022-07-30T09:05:09;1.63;;;1.42;;
13485;SDS011;6815;59.336;17.998;2022-07-30T09:07:35;1.65;;;1.30;;
13485;SDS011;6815;59.336;17.998;2022-07-30T09:10:01;2.80;;;1.40;;
13485;SDS011;6815;59.336;17.998;2022-07-30T09:12:38;5.90;;;2.10;;
13485;SDS011;6815;59.336;17.998;2022-07-30T09:17:51;2.88;;;1.17;;
13485;SDS011;6815;59.336;17.998;2022-07-30T09:20:22;2.58;;;1.10;;
13485;SDS011;6815;59.336;17.998;2022-07-30T09:22:53;1.50;;;1.40;;
13485;SDS011;6815;59.336;17.998;2022-07-30T09:25:39;2.10;;;1.30;;
13485;SDS011;6815;59.336;17.998;2022-07-30T09:28:07;2.53;;;1.65;;
13485;SDS011;6815;59.336;17.998;2022-07-30T09:36:08;1.42;;;1.33;;
13485;SDS011;6815;59.336;17.998;2022-07-30T09:41:16;2.72;;;1.25;;
13485;SDS011;6815;59.336;17.998;2022-07-30T09:46:13;1.45;;;1.13;;
13485;SDS011;6815;59.336;17.998;2022-07-30T09:48:39;3.65;;;1.30;;
13485;SDS011;6815;59.336;17.998;2022-07-30T09:51:05;1.92;;;1.40;;
13485;SDS011;6815;59.336;17.998;2022-07-30T09:53:32;1.77;;;1.38;;
13485;SDS011;6815;59.336;17.998;2022-07-30T09:55:58;1.30;;;1.20;;
13485;SDS011;6815;59.336;17.998;2022-07-30T09:58:38;2.45;;;1.10;;
13485;SDS011;6815;59.336;17.998;2022-07-30T10:01:04;1.48;;;1.30;;
13485;SDS011;6815;59.336;17.998;2022-07-30T10:03:30;2.53;;;1.40;;
13485;SDS011;6815;59.336;17.998;2022-07-30T10:05:56;1.58;;;1.20;;
13485;SDS011;6815;59.336;17.998;2022-07-30T10:11:04;1.63;;;1.52;;
13485;SDS011;6815;59.336;17.998;2022-07-30T10:13:30;1.58;;;1.48;;
13485;SDS011;6815;59.336;17.998;2022-07-30T10:15:57;1.92;;;1.25;;
13485;SDS011;6815;59.336;17.998;2022-07-30T10:18:22;1.30;;;1.20;;
13485;SDS011;6815;59.336;17.998;2022-07-30T10:20:48;2.83;;;1.35;;
13485;SDS011;6815;59.336;17.998;2022-07-30T10:23:14;1.40;;;1.20;;
13485;SDS011;6815;59.336;17.998;2022-07-30T10:25:40;1.38;;;1.25;;
13485;SDS011;6815;59.336;17.998;2022-07-30T10:28:06;1.50;;;1.13;;
13485;SDS011;6815;59.336;17.998;2022-07-30T10:30:31;1.40;;;1.20;;
13485;SDS011;6815;59.336;17.998;2022-07-30T10:32:58;1.50;;;1.35;;
13485;SDS011;6815;59.336;17.998;2022-07-30T10:35:24;2.05;;;1.45;;
13485;SDS011;6815;59.336;17.998;2022-07-30T10:37:50;2.45;;;1.50;;
13485;SDS011;6815;59.336;17.998;2022-07-30T10:48:53;1.75;;;1.10;;
13485;SDS011;6815;59.336;17.998;2022-07-30T10:51:21;1.40;;;1.17;;
13485;SDS011;6815;59.336;17.998;2022-07-30T10:53:46;2.95;;;1.27;;
13485;SDS011;6815;59.336;17.998;2022-07-30T10:56:17;3.90;;;1.73;;
13485;SDS011;6815;59.336;17.998;2022-07-30T11:06:50;1.20;;;1.10;;
13485;SDS011;6815;59.336;17.998;2022-07-30T11:12:07;1.60;;;1.08;;
13485;SDS011;6815;59.336;17.998;2022-07-30T11:17:17;1.05;;;0.95;;
13485;SDS011;6815;59.336;17.998;2022-07-30T11:22:35;1.23;;;1.13;;
13485;SDS011;6815;59.336;17.998;2022-07-30T11:30:04;1.15;;;1.05;;
13485;SDS011;6815;59.336;17.998;2022-07-30T11:33:19;1.85;;;1.27;;
13485;SDS011;6815;59.336;17.998;2022-07-30T11:35:41;2.25;;;1.10;;
13485;SDS011;6815;59.336;17.998;2022-07-30T11:38:11;0.70;;;0.70;;
13485;SDS011;6815;59.336;17.998;2022-07-30T11:43:22;1.00;;;0.90;;
13485;SDS011;6815;59.336;17.998;2022-07-30T11:46:15;1.25;;;0.88;;
13485;SDS011;6815;59.336;17.998;2022-07-30T11:48:56;1.05;;;1.00;;
13485;SDS011;6815;59.336;17.998;2022-07-30T11:51:23;1.88;;;0.98;;
13485;SDS011;6815;59.336;17.998;2022-07-30T11:54:02;1.27;;;1.05;;
13485;SDS011;6815;59.336;17.998;2022-07-30T11:56:30;1.30;;;1.20;;
13485;SDS011;6815;59.336;17.998;2022-07-30T11:59:04;1.23;;;1.00;;
13485;SDS011;6815;59.336;17.998;2022-07-30T12:01:33;2.05;;;1.10;;
13485;SDS011;6815;59.336;17.998;2022-07-30T12:04:02;1.20;;;1.10;;
13485;SDS011;6815;59.336;17.998;2022-07-30T12:06:29;1.08;;;0.98;;
13485;SDS011;6815;59.336;17.998;2022-07-30T12:08:56;2.47;;;1.00;;
13485;SDS011;6815;59.336;17.998;2022-07-30T12:11:22;1.17;;;0.95;;
13485;SDS011;6815;59.336;17.998;2022-07-30T12:13:55;1.48;;;1.13;;
13485;SDS011;6815;59.336;17.998;2022-07-30T12:16:24;1.48;;;1.25;;
13485;SDS011;6815;59.336;17.998;2022-07-30T12:18:50;1.48;;;1.33;;
13485;SDS011;6815;59.336;17.998;2022-07-30T12:21:16;1.23;;;1.10;;
13485;SDS011;6815;59.336;17.998;2022-07-30T12:23:56;1.52;;;1.33;;
13485;SDS011;6815;59.336;17.998;2022-07-30T12:26:24;1.20;;;1.02;;
13485;SDS011;6815;59.336;17.998;2022-07-30T12:28:51;1.13;;;1.00;;
13485;SDS011;6815;59.336;17.998;2022-07-30T12:31:18;1.13;;;1.02;;
13485;SDS011;6815;59.336;17.998;2022-07-30T12:33:44;0.90;;;0.90;;
13485;SDS011;6815;59.336;17.998;2022-07-30T12:36:10;1.25;;;1.10;;
13485;SDS011;6815;59.336;17.998;2022-07-30T12:38:51;1.75;;;0.88;;
13485;SDS011;6815;59.336;17.998;2022-07-30T12:41:18;1.30;;;1.02;;
13485;SDS011;6815;59.336;17.998;2022-07-30T12:46:11;0.95;;;0.88;;
13485;SDS011;6815;59.336;17.998;2022-07-30T12:51:19;1.17;;;1.08;;
13485;SDS011;6815;59.336;17.998;2022-07-30T12:53:50;1.30;;;1.20;;
13485;SDS011;6815;59.336;17.998;2022-07-30T12:56:17;1.25;;;1.15;;
13485;SDS011;6815;59.336;17.998;2022-07-30T12:58:51;0.90;;;0.90;;
13485;SDS011;6815;59.336;17.998;2022-07-30T13:01:18;1.05;;;0.95;;
13485;SDS011;6815;59.336;17.998;2022-07-30T13:03:44;1.35;;;1.20;;
13485;SDS011;6815;59.336;17.998;2022-07-30T13:06:19;1.40;;;1.30;;
13485;SDS011;6815;59.336;17.998;2022-07-30T13:08:57;2.05;;;1.23;;
13485;SDS011;6815;59.336;17.998;2022-07-30T13:11:24;2.15;;;1.45;;
13485;SDS011;6815;59.336;17.998;2022-07-30T13:14:02;2.35;;;1.50;;
13485;SDS011;6815;59.336;17.998;2022-07-30T13:16:31;3.28;;;1.50;;
13485;SDS011;6815;59.336;17.998;2022-07-30T13:18:58;2.92;;;1.80;;
13485;SDS011;6815;59.336;17.998;2022-07-30T13:21:24;1.65;;;1.55;;
13485;SDS011;6815;59.336;17.998;2022-07-30T13:23:50;3.13;;;1.83;;
13485;SDS011;6815;59.336;17.998;2022-07-30T13:26:15;2.10;;;1.60;;
13485;SDS011;6815;59.336;17.998;2022-07-30T13:28:41;3.83;;;2.15;;
13485;SDS011;6815;59.336;17.998;2022-07-30T13:31:06;1.92;;;1.55;;
13485;SDS011;6815;59.336;17.998;2022-07-30T13:33:34;2.38;;;1.30;;
13485;SDS011;6815;59.336;17.998;2022-07-30T13:35:59;4.15;;;1.50;;
13485;SDS011;6815;59.336;17.998;2022-07-30T13:38:25;2.72;;;1.70;;
13485;SDS011;6815;59.336;17.998;2022-07-30T13:40:51;1.60;;;1.50;;
13485;SDS011;6815;59.336;17.998;2022-07-30T13:43:18;3.28;;;1.60;;
13485;SDS011;6815;59.336;17.998;2022-07-30T13:45:45;2.33;;;1.77;;
13485;SDS011;6815;59.336;17.998;2022-07-30T13:48:11;3.45;;;2.00;;
13485;SDS011;6815;59.336;17.998;2022-07-30T13:50:38;1.63;;;1.52;;
13485;SDS011;6815;59.336;17.998;2022-07-30T13:53:03;2.38;;;1.45;;
13485;SDS011;6815;59.336;17.998;2022-07-30T13:55:29;2.85;;;1.58;;
13485;SDS011;6815;59.336;17.998;2022-07-30T13:57:55;2.47;;;1.92;;
13485;SDS011;6815;59.336;17.998;2022-07-30T14:00:20;6.60;;;1.67;;
13485;SDS011;6815;59.336;17.998;2022-07-30T14:02:47;1.77;;;1.67;;
13485;SDS011;6815;59.336;17.998;2022-07-30T14:05:12;2.13;;;1.60;;
13485;SDS011;6815;59.336;17.998;2022-07-30T14:07:38;4.03;;;1.60;;
13485;SDS011;6815;59.336;17.998;2022-07-30T14:10:05;2.20;;;1.60;;
13485;SDS011;6815;59.336;17.998;2022-07-30T14:12:31;1.67;;;1.55;;
13485;SDS011;6815;59.336;17.998;2022-07-30T14:14:57;2.00;;;1.45;;
13485;SDS011;6815;59.336;17.998;2022-07-30T14:17:22;1.70;;;1.40;;
13485;SDS011;6815;59.336;17.998;2022-07-30T14:19:48;3.17;;;1.42;;
13485;SDS011;6815;59.336;17.998;2022-07-30T14:22:15;1.35;;;1.23;;
13485;SDS011;6815;59.336;17.998;2022-07-30T14:24:41;1.98;;;1.70;;
13485;SDS011;6815;59.336;17.998;2022-07-30T14:27:06;3.55;;;1.58;;
13485;SDS011;6815;59.336;17.998;2022-07-30T14:29:32;2.67;;;1.40;;
13485;SDS011;6815;59.336;17.998;2022-07-30T14:31:57;1.77;;;1.50;;
13485;SDS011;6815;59.336;17.998;2022-07-30T14:34:22;2.05;;;1.52;;
13485;SDS011;6815;59.336;17.998;2022-07-30T14:36:48;2.38;;;1.50;;
13485;SDS011;6815;59.336;17.998;2022-07-30T14:39:13;1.60;;;1.45;;
13485;SDS011;6815;59.336;17.998;2022-07-30T14:41:39;2.95;;;2.10;;
13485;SDS011;6815;59.336;17.998;2022-07-30T14:44:04;2.60;;;1.52;;
13485;SDS011;6815;59.336;17.998;2022-07-30T14:46:30;2.03;;;1.50;;
13485;SDS011;6815;59.336;17.998;2022-07-30T14:48:55;1.40;;;1.30;;
13485;SDS011;6815;59.336;17.998;2022-07-30T14:51:21;1.30;;;1.20;;
13485;SDS011;6815;59.336;17.998;2022-07-30T14:53:47;1.20;;;0.98;;
13485;SDS011;6815;59.336;17.998;2022-07-30T14:56:15;1.38;;;1.20;;
13485;SDS011;6815;59.336;17.998;2022-07-30T14:58:40;1.33;;;1.00;;
13485;SDS011;6815;59.336;17.998;2022-07-30T15:01:06;1.00;;;1.00;;
13485;SDS011;6815;59.336;17.998;2022-07-30T15:03:34;1.20;;;0.95;;
13485;SDS011;6815;59.336;17.998;2022-07-30T15:06:00;0.93;;;0.90;;
13485;SDS011;6815;59.336;17.998;2022-07-30T15:08:26;1.27;;;1.10;;
13485;SDS011;6815;59.336;17.998;2022-07-30T15:10:51;1.50;;;1.20;;
13485;SDS011;6815;59.336;17.998;2022-07-30T15:13:17;1.10;;;1.00;;
13485;SDS011;6815;59.336;17.998;2022-07-30T15:15:42;2.25;;;1.23;;
13485;SDS011;6815;59.336;17.998;2022-07-30T15:18:08;1.30;;;1.20;;
13485;SDS011;6815;59.336;17.998;2022-07-30T15:20:34;1.10;;;1.00;;
13485;SDS011;6815;59.336;17.998;2022-07-30T15:23:01;1.23;;;1.05;;
13485;SDS011;6815;59.336;17.998;2022-07-30T15:25:27;1.40;;;1.10;;
13485;SDS011;6815;59.336;17.998;2022-07-30T15:27:53;1.33;;;1.20;;
13485;SDS011;6815;59.336;17.998;2022-07-30T15:30:18;1.98;;;1.05;;
13485;SDS011;6815;59.336;17.998;2022-07-30T15:32:44;1.75;;;1.00;;
13485;SDS011;6815;59.336;17.998;2022-07-30T15:35:10;2.05;;;1.10;;
13485;SDS011;6815;59.336;17.998;2022-07-30T15:37:35;2.53;;;1.20;;
13485;SDS011;6815;59.336;17.998;2022-07-30T15:40:02;2.05;;;1.15;;
13485;SDS011;6815;59.336;17.998;2022-07-30T15:42:28;1.50;;;0.95;;
13485;SDS011;6815;59.336;17.998;2022-07-30T15:44:55;1.48;;;1.17;;
13485;SDS011;6815;59.336;17.998;2022-07-30T15:47:20;1.83;;;1.17;;
13485;SDS011;6815;59.336;17.998;2022-07-30T15:49:46;2.28;;;1.10;;